createdAt,value
2018-07-09T00:02:29.281Z,55.90
2018-07-09T00:05:33.346Z,55.70
2018-07-09T00:08:37.256Z,56.10
2018-07-09T00:11:41.173Z,56.20
2018-07-09T00:14:45.097Z,56.70
2018-07-09T00:17:49.028Z,56.40
2018-07-09T00:20:52.957Z,56.70
2018-07-09T00:23:56.874Z,56.50
2018-07-09T00:27:00.897Z,56.40
2018-07-09T00:30:04.814Z,56.30
2018-07-09T00:33:08.889Z,56.50
2018-07-09T00:36:12.829Z,56.60
2018-07-09T00:39:16.749Z,56.80
2018-07-09T00:42:20.820Z,56.80
2018-07-09T00:45:24.918Z,56.80
2018-07-09T00:48:28.926Z,56.80
2018-07-09T00:51:33.033Z,56.80
2018-07-09T00:54:37.047Z,56.80
2018-07-09T00:57:41.262Z,56.60
2018-07-09T01:00:45.184Z,56.80
2018-07-09T01:03:49.106Z,56.50
2018-07-09T01:06:53.215Z,56.30
2018-07-09T01:09:57.192Z,56.30
2018-07-09T01:13:01.114Z,56.40
2018-07-09T01:16:05.064Z,56.40
2018-07-09T01:19:09.044Z,56.50
2018-07-09T01:22:12.936Z,56.20
2018-07-09T01:25:16.965Z,56.50
2018-07-09T01:28:20.976Z,56.40
2018-07-09T01:31:24.884Z,56.30
2018-07-09T01:34:28.849Z,56.30
2018-07-09T01:37:32.813Z,56.20
2018-07-09T01:40:36.737Z,56.30
2018-07-09T01:43:40.662Z,56.50
2018-07-09T01:46:44.557Z,56.30
2018-07-09T01:49:48.512Z,56.60
2018-07-09T01:52:52.510Z,56.60
2018-07-09T01:55:56.494Z,56.20
2018-07-09T01:59:00.487Z,56.80
2018-07-09T02:02:04.449Z,57.20
2018-07-09T02:05:08.330Z,56.50
2018-07-09T02:08:12.303Z,56.90
2018-07-09T02:11:16.198Z,56.70
2018-07-09T02:14:20.174Z,56.40
2018-07-09T02:17:24.061Z,56.20
2018-07-09T02:20:28.030Z,56.50
2018-07-09T02:23:31.918Z,56.10
2018-07-09T02:26:35.983Z,56.30
2018-07-09T02:29:39.884Z,56.20
2018-07-09T02:32:43.825Z,56.30
2018-07-09T02:35:47.815Z,56.20
2018-07-09T02:38:51.733Z,56.30
2018-07-09T02:41:55.686Z,56.30
2018-07-09T02:44:59.611Z,56.10
2018-07-09T02:48:03.510Z,56.00
2018-07-09T02:51:07.844Z,56.00
2018-07-09T02:54:11.897Z,56.30
2018-07-09T02:57:15.850Z,56.50
2018-07-09T03:00:20.050Z,56.50
2018-07-09T03:03:24.405Z,56.70
2018-07-09T03:06:28.342Z,56.80
2018-07-09T03:09:32.225Z,56.90
2018-07-09T03:12:36.127Z,57.00
2018-07-09T03:15:40.036Z,57.20
2018-07-09T03:18:43.960Z,57.40
2018-07-09T03:21:47.876Z,57.70
2018-07-09T03:24:51.747Z,57.80
2018-07-09T03:27:55.624Z,58.10
2018-07-09T03:30:59.537Z,58.10
2018-07-09T03:34:03.471Z,58.00
2018-07-09T03:37:07.416Z,58.00
2018-07-09T03:40:11.317Z,57.90
2018-07-09T03:43:15.229Z,57.90
2018-07-09T03:46:19.183Z,57.90
2018-07-09T03:49:23.100Z,58.20
2018-07-09T03:52:26.960Z,58.10
2018-07-09T03:55:30.891Z,58.10
2018-07-09T03:58:34.784Z,57.90
2018-07-09T04:01:38.635Z,57.90
2018-07-09T04:04:42.474Z,57.90
2018-07-09T04:07:46.409Z,58.00
2018-07-09T04:10:50.288Z,57.70
2018-07-09T04:13:54.243Z,57.60
2018-07-09T04:16:58.157Z,57.60
2018-07-09T04:20:02.011Z,57.60
2018-07-09T04:23:05.917Z,57.30
2018-07-09T04:26:09.863Z,57.20
2018-07-09T04:29:13.750Z,57.30
2018-07-09T04:32:17.619Z,57.30
2018-07-09T04:35:21.568Z,57.10
2018-07-09T04:38:25.484Z,56.90
2018-07-09T04:41:29.395Z,56.50
2018-07-09T04:44:33.248Z,56.30
2018-07-09T04:47:37.148Z,56.10
2018-07-09T04:50:41.026Z,56.00
2018-07-09T04:53:44.998Z,55.40
2018-07-09T04:56:48.874Z,55.20
2018-07-09T04:59:52.789Z,55.40
2018-07-09T05:02:56.721Z,55.40
2018-07-09T05:06:00.604Z,55.70
2018-07-09T05:09:05.187Z,55.60
2018-07-09T05:12:09.120Z,55.40
2018-07-09T05:15:13.013Z,55.30
2018-07-09T05:18:16.988Z,55.10
2018-07-09T05:21:20.895Z,55.10
2018-07-09T05:24:24.900Z,55.10
2018-07-09T05:27:28.852Z,55.10
2018-07-09T05:30:32.832Z,54.90
2018-07-09T05:33:36.705Z,54.30
2018-07-09T05:36:40.589Z,54.10
2018-07-09T05:39:45.134Z,53.90
2018-07-09T05:42:49.483Z,53.80
2018-07-09T05:45:53.510Z,53.60
2018-07-09T05:48:58.497Z,54.00
2018-07-09T05:52:02.410Z,53.70
2018-07-09T05:55:06.527Z,52.90
2018-07-09T05:58:10.452Z,51.90
2018-07-09T06:01:14.357Z,51.30
2018-07-09T06:04:18.259Z,50.70
2018-07-09T06:07:22.178Z,50.20
2018-07-09T06:10:26.295Z,49.50
2018-07-09T06:13:30.286Z,49.10
2018-07-09T06:16:34.222Z,48.50
2018-07-09T06:19:38.209Z,47.70
2018-07-09T06:22:42.164Z,47.60
2018-07-09T06:25:46.213Z,46.80
2018-07-09T06:28:50.147Z,47.10
2018-07-09T06:31:54.052Z,47.50
2018-07-09T06:34:57.904Z,48.40
2018-07-09T06:38:01.893Z,47.30
2018-07-09T06:41:05.878Z,46.20
2018-07-09T06:44:09.900Z,45.90
2018-07-09T06:47:13.851Z,46.40
2018-07-09T06:50:17.771Z,46.50
2018-07-09T06:53:21.651Z,46.50
2018-07-09T06:56:25.594Z,46.90
2018-07-09T06:59:29.505Z,47.60
2018-07-09T07:02:33.467Z,46.80
2018-07-09T07:05:37.463Z,47.30
2018-07-09T07:08:41.532Z,47.50
2018-07-09T07:11:45.463Z,47.20
2018-07-09T07:14:49.371Z,47.60
2018-07-09T07:17:53.317Z,47.50
2018-07-09T07:20:57.310Z,47.70
2018-07-09T07:24:01.180Z,46.30
2018-07-09T07:27:05.276Z,46.50
2018-07-09T07:30:09.242Z,46.80
2018-07-09T07:33:13.251Z,46.80
2018-07-09T07:36:17.445Z,46.80
2018-07-09T07:39:21.462Z,46.30
2018-07-09T07:42:25.429Z,46.30
2018-07-09T07:45:29.382Z,45.30
2018-07-09T07:48:33.467Z,43.50
2018-07-09T07:51:37.523Z,42.50
2018-07-09T07:54:41.432Z,38.90
2018-07-09T07:57:45.640Z,34.60
2018-07-09T08:00:49.556Z,31.40
2018-07-09T08:03:53.492Z,29.40
2018-07-09T08:06:57.482Z,29.10
2018-07-09T08:10:01.525Z,28.60
2018-07-09T08:13:28.499Z,28.50
2018-07-09T08:16:09.632Z,28.40
2018-07-09T08:19:13.555Z,28.40
2018-07-09T08:22:17.581Z,28.60
2018-07-09T08:25:21.588Z,28.80
2018-07-09T08:28:25.758Z,29.30
2018-07-09T08:31:29.751Z,28.80
2018-07-09T08:34:33.639Z,29.40
2018-07-09T08:37:37.607Z,29.90
2018-07-09T08:40:41.589Z,31.70
2018-07-09T08:43:45.516Z,32.20
2018-07-09T08:46:49.526Z,31.00
2018-07-09T08:49:53.414Z,30.90
2018-07-09T08:52:57.383Z,31.60
2018-07-09T08:56:01.312Z,31.50
2018-07-09T08:59:05.370Z,29.50
2018-07-09T09:02:09.490Z,29.20
2018-07-09T09:05:13.404Z,28.90
2018-07-09T09:08:17.340Z,29.20
2018-07-09T09:11:21.215Z,28.90
2018-07-09T09:14:25.180Z,28.90
2018-07-09T09:17:29.250Z,29.30
2018-07-09T09:20:33.232Z,29.00
2018-07-09T09:23:37.188Z,29.00
2018-07-09T09:26:41.131Z,29.60
2018-07-09T09:29:45.047Z,29.50
2018-07-09T09:32:48.988Z,29.40
2018-07-09T09:35:52.957Z,29.10
2018-07-09T09:38:56.909Z,28.70
2018-07-09T09:42:00.830Z,29.10
2018-07-09T09:45:04.945Z,28.30
2018-07-09T09:48:08.990Z,28.10
2018-07-09T09:51:13.948Z,28.00
2018-07-09T09:54:17.924Z,28.50
2018-07-09T09:57:21.892Z,28.80
2018-07-09T10:00:31.196Z,28.90
2018-07-09T10:03:35.192Z,29.10
2018-07-09T10:06:39.094Z,29.50
2018-07-09T10:09:43.076Z,29.40
2018-07-09T10:12:46.992Z,30.20
2018-07-09T10:15:50.929Z,30.10
2018-07-09T10:18:54.900Z,30.10
2018-07-09T10:21:58.812Z,30.10
2018-07-09T10:25:02.744Z,30.00
2018-07-09T10:28:06.779Z,29.90
2018-07-09T10:31:10.691Z,30.50
2018-07-09T10:34:14.569Z,30.40
2018-07-09T10:37:18.456Z,30.60
2018-07-09T10:40:22.382Z,30.90
2018-07-09T10:43:26.258Z,30.20
2018-07-09T10:46:30.188Z,30.00
2018-07-09T10:49:34.115Z,30.00
2018-07-09T10:52:38.065Z,30.20
2018-07-09T10:55:42.046Z,30.70
2018-07-09T10:58:45.988Z,30.50
2018-07-09T11:01:49.970Z,29.90
2018-07-09T11:04:53.878Z,30.30
2018-07-09T11:07:57.845Z,30.30
2018-07-09T11:11:01.744Z,30.00
2018-07-09T11:14:05.818Z,29.10
2018-07-09T11:17:09.776Z,29.10
2018-07-09T11:20:13.700Z,28.50
2018-07-09T11:23:17.639Z,29.10
2018-07-09T11:26:21.547Z,29.50
2018-07-09T11:29:25.481Z,29.60
2018-07-09T11:32:29.685Z,29.60
2018-07-09T11:35:33.539Z,29.60
2018-07-09T11:38:37.447Z,29.80
2018-07-09T11:41:41.510Z,30.20
2018-07-09T11:44:45.517Z,30.40
2018-07-09T11:47:49.459Z,29.80
2018-07-09T11:50:53.368Z,31.40
2018-07-09T11:53:57.261Z,31.60
2018-07-09T11:57:01.140Z,31.70
2018-07-09T12:00:05.450Z,32.50
2018-07-09T12:03:09.424Z,33.30
2018-07-09T12:06:13.355Z,33.90
2018-07-09T12:09:17.259Z,34.50
2018-07-09T12:12:21.198Z,35.10
2018-07-09T12:15:25.086Z,34.80
2018-07-09T12:18:29.026Z,34.70
2018-07-09T12:21:33.068Z,33.50
2018-07-09T12:24:37.037Z,33.20
2018-07-09T12:27:41.142Z,33.40
2018-07-09T12:30:45.063Z,33.30
2018-07-09T12:33:49.231Z,33.30
2018-07-09T12:36:53.317Z,32.70
2018-07-09T12:39:57.332Z,32.70
2018-07-09T12:43:01.248Z,32.20
2018-07-09T12:46:05.255Z,31.80
2018-07-09T12:49:09.295Z,32.70
2018-07-09T12:52:13.273Z,32.10
2018-07-09T12:55:17.157Z,32.20
2018-07-09T12:58:21.081Z,32.00
2018-07-09T13:01:25.037Z,31.90
2018-07-09T13:04:29.003Z,32.00
2018-07-09T13:07:33.275Z,32.50
2018-07-09T13:10:37.200Z,32.40
2018-07-09T13:13:41.208Z,30.80
2018-07-09T13:16:45.081Z,30.70
2018-07-09T13:19:49.165Z,30.40
2018-07-09T13:22:53.129Z,30.30
2018-07-09T13:25:57.751Z,30.70
2018-07-09T13:29:01.812Z,30.40
2018-07-09T13:32:05.866Z,30.50
2018-07-09T13:35:10.629Z,30.20
2018-07-09T13:38:14.653Z,29.90
2018-07-09T13:41:18.712Z,29.50
2018-07-09T13:44:23.582Z,29.50
2018-07-09T13:47:27.815Z,30.00
2018-07-09T13:50:31.959Z,30.50
2018-07-09T13:53:35.992Z,30.40
2018-07-09T13:56:40.099Z,30.40
2018-07-09T13:59:44.082Z,30.10
2018-07-09T14:02:47.988Z,29.70
2018-07-09T14:05:52.224Z,29.90
2018-07-09T14:08:56.244Z,30.00
2018-07-09T14:12:00.177Z,30.40
2018-07-09T14:15:04.273Z,30.80
2018-07-09T14:18:08.389Z,30.20
2018-07-09T14:21:12.362Z,30.90
2018-07-09T14:24:16.687Z,30.90
2018-07-09T14:27:20.701Z,31.00
2018-07-09T14:30:24.754Z,29.80
2018-07-09T14:33:28.785Z,32.20
2018-07-09T14:36:32.738Z,34.30
2018-07-09T14:39:36.672Z,32.10
2018-07-09T14:42:40.627Z,31.20
2018-07-09T14:45:44.573Z,30.90
2018-07-09T14:48:48.554Z,29.70
2018-07-09T14:51:52.466Z,29.20
2018-07-09T14:54:56.377Z,27.90
2018-07-09T14:58:00.329Z,27.90
2018-07-09T15:01:04.386Z,28.10
2018-07-09T15:04:08.387Z,28.20
2018-07-09T15:07:12.848Z,28.70
2018-07-09T15:10:16.723Z,28.30
2018-07-09T15:13:20.613Z,28.20
2018-07-09T15:16:24.589Z,29.90
2018-07-09T15:19:28.630Z,29.60
2018-07-09T15:22:32.555Z,29.10
2018-07-09T15:25:36.547Z,29.40
2018-07-09T15:28:40.427Z,29.20
2018-07-09T15:31:55.315Z,29.00
2018-07-09T15:34:59.315Z,29.20
2018-07-09T15:38:03.261Z,28.70
2018-07-09T15:41:07.264Z,29.10
2018-07-09T15:44:11.290Z,29.90
2018-07-09T15:47:15.266Z,29.70
2018-07-09T15:50:19.264Z,29.80
2018-07-09T15:53:23.180Z,29.50
2018-07-09T15:56:28.202Z,29.40
2018-07-09T15:59:32.102Z,29.50
2018-07-09T16:02:36.056Z,29.80
2018-07-09T16:05:39.992Z,29.80
2018-07-09T16:08:43.916Z,30.50
2018-07-09T16:11:47.960Z,29.70
2018-07-09T16:14:51.888Z,29.70
2018-07-09T16:17:55.897Z,30.00
2018-07-09T16:20:59.868Z,30.00
2018-07-09T16:24:03.859Z,30.10
2018-07-09T16:27:08.459Z,30.10
2018-07-09T16:30:12.665Z,30.10
2018-07-09T16:33:16.915Z,30.20
2018-07-09T16:36:20.884Z,30.00
2018-07-09T16:39:24.851Z,29.50
2018-07-09T16:42:28.795Z,30.00
2018-07-09T16:45:32.790Z,29.80
2018-07-09T16:48:36.811Z,30.00
2018-07-09T16:51:40.750Z,29.20
2018-07-09T16:54:44.788Z,29.70
2018-07-09T16:57:48.870Z,30.00
2018-07-09T17:00:53.004Z,29.90
2018-07-09T17:03:57.058Z,30.50
2018-07-09T17:07:01.070Z,30.40
2018-07-09T17:10:05.143Z,30.50
2018-07-09T17:13:09.140Z,31.00
2018-07-09T17:16:13.146Z,31.30
2018-07-09T17:19:17.216Z,30.80
2018-07-09T17:22:21.253Z,30.90
2018-07-09T17:25:25.324Z,31.10
2018-07-09T17:28:29.384Z,31.60
2018-07-09T17:31:33.400Z,34.30
2018-07-09T17:34:37.363Z,34.00
2018-07-09T17:37:41.423Z,34.60
2018-07-09T17:40:45.360Z,34.30
2018-07-09T17:43:49.655Z,34.30
2018-07-09T17:46:54.028Z,34.20
2018-07-09T17:49:58.471Z,35.00
2018-07-09T17:53:02.450Z,35.20
2018-07-09T17:56:06.477Z,35.20
2018-07-09T17:59:10.448Z,35.70
2018-07-09T18:02:14.462Z,36.30
2018-07-09T18:05:18.405Z,35.60
2018-07-09T18:08:22.400Z,37.00
2018-07-09T18:11:26.405Z,37.00
2018-07-09T18:14:30.666Z,37.30
2018-07-09T18:17:34.693Z,37.70
2018-07-09T18:20:38.702Z,38.10
2018-07-09T18:23:42.927Z,38.40
2018-07-09T18:26:46.979Z,38.90
2018-07-09T18:29:51.057Z,39.20
2018-07-09T18:32:55.072Z,39.60
2018-07-09T18:35:59.626Z,39.80
2018-07-09T18:39:04.750Z,40.20
2018-07-09T18:42:08.827Z,40.30
2018-07-09T18:45:12.882Z,40.50
2018-07-09T18:48:17.025Z,40.60
2018-07-09T18:51:20.962Z,40.80
2018-07-09T18:54:24.973Z,40.90
2018-07-09T18:57:28.951Z,41.10
2018-07-09T19:00:32.833Z,41.50
2018-07-09T19:03:36.805Z,41.80
2018-07-09T19:06:50.115Z,41.80
2018-07-09T19:09:54.305Z,42.10
2018-07-09T19:12:58.546Z,42.40
2018-07-09T19:16:02.747Z,42.60
2018-07-09T19:19:17.439Z,42.80
2018-07-09T19:22:29.629Z,42.70
2018-07-09T19:25:32.762Z,43.00
2018-07-09T19:28:35.324Z,44.20
2018-07-09T19:31:37.821Z,44.60
2018-07-09T19:34:40.372Z,45.40
2018-07-09T19:37:43.373Z,46.00
2018-07-09T19:40:45.577Z,46.80
2018-07-09T19:43:48.195Z,46.10
2018-07-09T19:46:50.714Z,46.90
2018-07-09T19:49:53.312Z,47.20
2018-07-09T19:52:55.896Z,47.20
2018-07-09T19:55:58.535Z,47.40
2018-07-09T19:59:01.085Z,47.10
2018-07-09T20:02:03.747Z,47.70
2018-07-09T20:05:06.462Z,48.10
2018-07-09T20:08:09.182Z,48.60
2018-07-09T20:11:16.791Z,48.90
2018-07-09T20:14:24.553Z,49.00
2018-07-09T20:17:29.057Z,49.30
2018-07-09T20:20:31.599Z,49.80
2018-07-09T20:23:34.143Z,49.90
2018-07-09T20:26:36.706Z,49.80
2018-07-09T20:29:39.215Z,50.20
2018-07-09T20:32:41.834Z,50.50
2018-07-09T20:35:44.327Z,50.70
2018-07-09T20:38:46.929Z,51.10
2018-07-09T20:41:49.409Z,51.00
2018-07-09T20:44:52.025Z,50.90
2018-07-09T20:47:54.548Z,51.00
2018-07-09T20:50:57.088Z,51.50
2018-07-09T20:53:59.745Z,51.80
2018-07-09T20:57:02.391Z,51.80
2018-07-09T21:00:04.945Z,51.80
2018-07-09T21:03:07.566Z,52.10
2018-07-09T21:06:10.094Z,52.20
2018-07-09T21:09:12.618Z,52.30
2018-07-09T21:12:15.230Z,51.80
2018-07-09T21:15:17.930Z,51.90
2018-07-09T21:18:20.352Z,52.10
2018-07-09T21:21:27.081Z,52.70
2018-07-09T21:24:29.682Z,53.00
2018-07-09T21:27:32.176Z,53.30
2018-07-09T21:30:34.702Z,53.60
2018-07-09T21:33:37.301Z,53.10
2018-07-09T21:36:39.872Z,53.00
2018-07-09T21:39:42.527Z,53.20
2018-07-09T21:42:45.017Z,53.40
2018-07-09T21:45:47.570Z,53.90
2018-07-09T21:48:50.071Z,54.30
2018-07-09T21:51:52.615Z,54.40
2018-07-09T21:54:55.127Z,54.30
2018-07-09T21:57:57.691Z,54.30
2018-07-09T22:01:00.267Z,54.50
2018-07-09T22:04:02.770Z,54.70
2018-07-09T22:07:05.282Z,54.60
2018-07-09T22:10:07.830Z,54.90
2018-07-09T22:13:10.390Z,55.50
2018-07-09T22:16:12.865Z,54.80
2018-07-09T22:19:15.706Z,54.80
2018-07-09T22:22:18.277Z,55.00
2018-07-09T22:25:20.758Z,54.80
2018-07-09T22:28:23.285Z,54.80
2018-07-09T22:31:27.201Z,54.40
2018-07-09T22:34:31.207Z,54.40
2018-07-09T22:37:35.056Z,54.50
2018-07-09T22:40:38.942Z,54.60
2018-07-09T22:43:53.570Z,54.60
2018-07-09T22:46:57.561Z,54.60
2018-07-09T22:50:01.488Z,54.50
2018-07-09T22:53:05.423Z,54.30
2018-07-09T22:56:11.442Z,54.10
2018-07-09T22:59:15.370Z,53.90
2018-07-09T23:02:19.395Z,53.80
2018-07-09T23:05:23.242Z,53.80
2018-07-09T23:08:27.307Z,53.80
2018-07-09T23:11:52.786Z,53.90
2018-07-09T23:15:38.507Z,53.80
2018-07-09T23:19:07.426Z,53.80
2018-07-09T23:22:16.143Z,54.10
2018-07-09T23:28:27.475Z,54.50
2018-07-09T23:31:29.985Z,54.70
2018-07-09T23:34:32.623Z,54.90
2018-07-09T23:37:35.131Z,54.80
2018-07-09T23:40:37.726Z,55.20
2018-07-09T23:43:40.226Z,55.40
2018-07-09T23:46:42.786Z,55.50
2018-07-09T23:49:45.351Z,55.60
2018-07-09T23:52:47.934Z,55.70
2018-07-09T23:56:01.362Z,55.90
2018-07-09T23:59:18.140Z,56.30
